Time;durP1;ratioP1;P1;durP2;ratioP2;P2;SDS_P1;SDS_P2;PMS_P1;PMS_P2;Temp;Humidity;BMP_temperature;BMP_pressure;BME280_temperature;BME280_humidity;BME280_pressure;Samples;Min_cycle;Max_cycle;Signal;HPM_P1;HPM_P2
2021/03/22 00:00:56;;;;;;;;;;;;;;;16.48;60.97;100207.44;5005959;28;1353;-63
2021/03/22 00:03:22;;;;;;;;;;;;;;;16.46;61.01;100196.88;4998628;28;1450;-63
2021/03/22 00:05:48;;;;;;;;;;;;;;;16.49;59.79;100203.75;5000032;28;1132;-63
2021/03/22 00:08:15;;;;;;;;;;;;;;;16.48;60.93;100188.75;5007698;28;1891;-62
2021/03/22 00:10:42;;;;;;;;;;;;;;;16.55;60.43;100194.38;4998388;28;1448;-64
2021/03/22 00:13:07;;;;;;;;;;;;;;;16.48;60.59;100192.25;5009552;28;1368;-61
2021/03/22 00:15:35;;;;;;;;;;;;;;;16.49;59.84;100193.97;4994901;28;1424;-62
2021/03/22 00:18:01;;;;;;;;;;;;;;;16.46;60.44;100186.19;5001217;28;1435;-63
2021/03/22 00:20:27;;;;;;;;;;;;;;;16.42;59.32;100176.78;5004901;28;1334;-63
2021/03/22 00:22:52;;;;;;;;;;;;;;;16.42;60.30;100187.44;4997678;28;1386;-63
2021/03/22 00:25:18;;;;;;;;;;;;;;;16.41;59.47;100172.44;5010348;28;1573;-64
2021/03/22 00:27:43;;;;;;;;;;;;;;;16.40;60.17;100183.22;4995969;28;1981;-62
2021/03/22 00:30:10;;;;;;;;;;;;;;;16.40;60.32;100177.91;5018352;28;1232;-64
2021/03/22 00:32:35;;;;;;;;;;;;;;;16.43;60.06;100166.94;5006865;28;1279;-64
2021/03/22 00:35:00;;;;;;;;;;;;;;;16.40;59.77;100175.22;5008676;28;1776;-63
2021/03/22 00:37:26;;;;;;;;;;;;;;;16.36;58.99;100165.81;5004761;28;1745;-61
2021/03/22 00:39:51;;;;;;;;;;;;;;;16.39;59.05;100163.69;5008754;28;1370;-61
2021/03/22 00:42:17;;;;;;;;;;;;;;;16.42;58.76;100144.75;4998414;28;1191;-64
2021/03/22 00:44:42;;;;;;;;;;;;;;;16.39;60.28;100146.84;5013102;28;1525;-61
2021/03/22 00:47:07;;;;;;;;;;;;;;;16.36;59.88;100139.13;5004524;28;1955;-62
2021/03/22 00:49:33;;;;;;;;;;;;;;;16.36;59.86;100139.13;5003438;28;1248;-64
2021/03/22 00:51:58;;;;;;;;;;;;;;;16.33;59.61;100123.34;5005803;28;1446;-64
2021/03/22 00:54:24;;;;;;;;;;;;;;;16.31;59.27;100115.47;5006702;28;1360;-63
2021/03/22 00:56:49;;;;;;;;;;;;;;;16.31;60.04;100120.81;5001291;28;1473;-61
2021/03/22 00:59:16;;;;;;;;;;;;;;;16.30;58.58;100111.13;5013549;28;1712;-63
2021/03/22 01:01:41;;;;;;;;;;;;;;;16.30;59.68;100103.13;5001616;28;1408;-62
2021/03/22 01:04:07;;;;;;;;;;;;;;;16.28;59.17;100105.94;5002056;28;1431;-64
2021/03/22 01:06:32;;;;;;;;;;;;;;;16.26;59.83;100102.56;5003499;28;1898;-61
2021/03/22 01:08:58;;;;;;;;;;;;;;;16.32;59.52;100087.00;5011034;28;1499;-64
2021/03/22 01:11:23;;;;;;;;;;;;;;;16.28;59.07;100089.91;5010127;28;1284;-63
2021/03/22 01:13:56;;;;;;;;;;;;;;;16.30;58.22;100090.63;5012713;28;1478;-64
2021/03/22 01:16:27;;;;;;;;;;;;;;;16.33;59.00;100083.34;4999205;28;1369;-64
2021/03/22 01:18:54;;;;;;;;;;;;;;;16.30;60.01;100087.13;5000554;28;1484;-62
2021/03/22 01:21:28;;;;;;;;;;;;;;;16.26;58.80;100067.88;5004955;28;1259;-61
2021/03/22 01:23:53;;;;;;;;;;;;;;;16.24;60.21;100055.66;5006961;28;1539;-61
2021/03/22 01:26:20;;;;;;;;;;;;;;;16.22;59.98;100055.78;4999302;28;1918;-64
2021/03/22 01:28:46;;;;;;;;;;;;;;;16.26;60.87;100059.88;5001858;28;1508;-61
2021/03/22 01:31:11;;;;;;;;;;;;;;;16.26;59.85;100067.03;5005152;28;1487;-61
2021/03/22 01:33:39;;;;;;;;;;;;;;;16.25;61.08;100062.66;5000841;28;1526;-63
2021/03/22 01:36:14;;;;;;;;;;;;;;;16.26;60.84;100049.19;5003719;28;1328;-61
2021/03/22 01:38:39;;;;;;;;;;;;;;;16.18;60.86;100041.03;5007547;28;1300;-64
2021/03/22 01:41:30;;;;;;;;;;;;;;;16.21;59.87;100035.41;5012055;28;1394;-64
2021/03/22 01:44:10;;;;;;;;;;;;;;;16.21;59.84;100023.91;5006865;28;1429;-63
2021/03/22 01:46:37;;;;;;;;;;;;;;;16.17;61.25;100034.00;5028262;28;1964;-62
2021/03/22 01:49:05;;;;;;;;;;;;;;;16.17;60.20;100043.81;5011959;28;1433;-63
2021/03/22 01:51:31;;;;;;;;;;;;;;;16.09;61.10;100015.16;5003761;28;1523;-64
2021/03/22 01:53:56;;;;;;;;;;;;;;;16.13;60.85;100024.56;5005057;28;1512;-63
2021/03/22 01:56:22;;;;;;;;;;;;;;;16.15;61.27;100029.78;5006103;28;1233;-61
2021/03/22 01:58:47;;;;;;;;;;;;;;;16.13;60.49;100005.06;5004835;28;1306;-61
2021/03/22 02:01:13;;;;;;;;;;;;;;;16.17;60.66;100017.97;5009450;28;1439;-62
2021/03/22 02:03:39;;;;;;;;;;;;;;;16.17;60.32;100022.47;5010847;28;1493;-62
2021/03/22 02:06:04;;;;;;;;;;;;;;;16.10;59.77;100014.19;5004610;28;1340;-64
2021/03/22 02:08:32;;;;;;;;;;;;;;;16.10;60.57;100032.84;5013056;28;1918;-61
2021/03/22 02:10:57;;;;;;;;;;;;;;;16.07;61.36;100022.44;5002202;28;1476;-61
2021/03/22 02:13:28;;;;;;;;;;;;;;;16.06;60.49;100021.59;5005444;28;1512;-61
2021/03/22 02:16:01;;;;;;;;;;;;;;;16.15;59.82;100021.78;4999753;28;1371;-69
2021/03/22 02:18:33;;;;;;;;;;;;;;;16.17;60.03;100028.66;5007282;28;1354;-63
2021/03/22 02:21:04;;;;;;;;;;;;;;;16.10;61.05;100011.53;5016112;28;1455;-61
2021/03/22 02:23:39;;;;;;;;;;;;;;;16.04;61.29;100018.22;5003477;28;1430;-62
2021/03/22 02:26:22;;;;;;;;;;;;;;;16.06;61.06;100010.09;4998639;28;1342;-64
2021/03/22 02:29:23;;;;;;;;;;;;;;;16.12;59.46;100017.56;5001017;28;1539;-63
2021/03/22 02:31:58;;;;;;;;;;;;;;;16.08;61.29;100016.16;4991367;28;1547;-64
2021/03/22 02:34:29;;;;;;;;;;;;;;;16.06;61.15;100002.09;5005001;28;1617;-63
2021/03/22 02:36:57;;;;;;;;;;;;;;;15.98;60.50;99985.94;5003287;28;1480;-61
2021/03/22 02:39:25;;;;;;;;;;;;;;;16.02;61.31;99990.03;5005120;28;1355;-63
2021/03/22 02:41:56;;;;;;;;;;;;;;;16.08;59.48;99982.31;5009773;28;1445;-61
2021/03/22 02:44:30;;;;;;;;;;;;;;;16.06;60.41;99978.94;5001561;28;1633;-63
2021/03/22 02:47:06;;;;;;;;;;;;;;;16.08;60.43;99984.16;4997665;28;1886;-63
2021/03/22 02:49:34;;;;;;;;;;;;;;;16.08;60.26;99978.81;5008476;28;1330;-64
2021/03/22 02:52:17;;;;;;;;;;;;;;;16.13;59.58;99965.88;4998460;28;1168;-62
2021/03/22 02:54:43;;;;;;;;;;;;;;;16.17;60.42;99967.31;5006103;28;1326;-62
2021/03/22 02:57:14;;;;;;;;;;;;;;;16.19;59.69;99965.34;5002638;28;1246;-62
2021/03/22 02:59:48;;;;;;;;;;;;;;;16.19;60.75;99973.34;5004496;28;1361;-61
2021/03/22 03:02:15;;;;;;;;;;;;;;;16.17;61.99;99980.63;5011423;28;1769;-62
2021/03/22 03:04:42;;;;;;;;;;;;;;;16.11;60.65;99991.84;5004488;28;1382;-61
2021/03/22 03:07:10;;;;;;;;;;;;;;;16.10;61.32;99979.50;5009316;28;1891;-63
2021/03/22 03:09:38;;;;;;;;;;;;;;;16.11;61.67;99978.53;5000329;28;1418;-63
2021/03/22 03:12:15;;;;;;;;;;;;;;;16.04;61.69;99974.72;4998598;28;1487;-61
2021/03/22 03:14:42;;;;;;;;;;;;;;;16.04;61.02;99980.06;5007872;28;1417;-62
2021/03/22 03:17:07;;;;;;;;;;;;;;;16.05;61.54;99981.72;5009589;28;1543;-63
2021/03/22 03:19:33;;;;;;;;;;;;;;;16.04;61.02;99982.72;5002813;28;1619;-64
2021/03/22 03:21:58;;;;;;;;;;;;;;;16.04;59.81;99972.06;5004233;28;1243;-60
2021/03/22 03:24:24;;;;;;;;;;;;;;;15.97;60.71;99978.91;5003249;28;1341;-63
2021/03/22 03:26:50;;;;;;;;;;;;;;;15.99;59.86;99974.28;5002459;28;1910;-63
2021/03/22 03:29:15;;;;;;;;;;;;;;;15.91;60.76;99964.28;5003342;28;1729;-63
2021/03/22 03:31:41;;;;;;;;;;;;;;;15.81;61.51;99990.91;5002642;28;1579;-60
2021/03/22 03:34:06;;;;;;;;;;;;;;;15.77;61.50;100000.16;5002864;28;1648;-63
2021/03/22 03:36:32;;;;;;;;;;;;;;;15.71;62.01;99995.31;5002520;28;1324;-64
2021/03/22 03:38:57;;;;;;;;;;;;;;;15.71;62.12;99992.66;5003700;28;1497;-63
2021/03/22 03:41:22;;;;;;;;;;;;;;;15.69;63.07;99999.94;5002314;28;806;-63
2021/03/22 03:43:48;;;;;;;;;;;;;;;15.66;62.67;99997.56;5017077;28;1431;-61
2021/03/22 03:46:13;;;;;;;;;;;;;;;15.63;62.53;99987.13;5010740;28;1878;-63
2021/03/22 03:48:38;;;;;;;;;;;;;;;15.65;62.68;99982.53;5007108;28;1436;-61
2021/03/22 03:51:04;;;;;;;;;;;;;;;15.64;63.35;99980.84;4995301;28;1203;-61
2021/03/22 03:53:29;;;;;;;;;;;;;;;15.61;63.04;99981.09;4995939;28;1478;-63
2021/03/22 03:55:56;;;;;;;;;;;;;;;15.62;63.49;99986.31;4998937;28;1405;-63
2021/03/22 03:58:21;;;;;;;;;;;;;;;15.59;63.38;99989.22;5004411;28;1397;-61
2021/03/22 04:00:47;;;;;;;;;;;;;;;15.59;64.23;99991.06;4997244;28;1347;-63
2021/03/22 04:03:17;;;;;;;;;;;;;;;15.60;63.46;100001.59;5007613;28;1505;-61
2021/03/22 04:05:43;;;;;;;;;;;;;;;15.59;63.58;99997.22;4997851;28;1384;-61
2021/03/22 04:08:08;;;;;;;;;;;;;;;15.57;63.23;99985.84;5008995;28;1894;-61
2021/03/22 04:10:33;;;;;;;;;;;;;;;15.55;64.55;99990.47;5006947;28;1334;-63
2021/03/22 04:12:59;;;;;;;;;;;;;;;15.54;64.35;99982.59;5003981;28;1423;-64
2021/03/22 04:15:24;;;;;;;;;;;;;;;15.52;63.58;99980.09;5003931;28;1801;-64
2021/03/22 04:17:50;;;;;;;;;;;;;;;15.52;63.70;99986.25;5012043;28;1311;-64
2021/03/22 04:20:16;;;;;;;;;;;;;;;15.51;64.66;99984.53;5007583;28;1283;-63
2021/03/22 04:22:42;;;;;;;;;;;;;;;15.50;64.05;99977.53;5004237;28;1756;-64
2021/03/22 04:25:07;;;;;;;;;;;;;;;15.48;64.82;99984.00;5000763;28;1580;-63
2021/03/22 04:27:33;;;;;;;;;;;;;;;15.50;65.01;99982.88;4996936;28;1915;-63
2021/03/22 04:29:58;;;;;;;;;;;;;;;15.46;65.08;99992.09;5005946;28;1148;-63
2021/03/22 04:32:24;;;;;;;;;;;;;;;15.42;64.39;99969.38;5000894;28;1788;-64
2021/03/22 04:34:49;;;;;;;;;;;;;;;15.44;64.05;99977.25;5003552;28;1553;-61
2021/03/22 04:37:14;;;;;;;;;;;;;;;15.42;64.21;99971.16;4999260;28;1415;-61
2021/03/22 04:39:40;;;;;;;;;;;;;;;15.42;64.01;99972.03;5015111;28;1380;-63
2021/03/22 04:42:05;;;;;;;;;;;;;;;15.41;64.64;99969.50;4999954;28;1396;-61
2021/03/22 04:44:31;;;;;;;;;;;;;;;15.40;64.18;99957.13;4999003;28;1576;-64
2021/03/22 04:46:56;;;;;;;;;;;;;;;15.40;64.39;99973.13;5004143;28;1949;-63
2021/03/22 04:49:21;;;;;;;;;;;;;;;15.39;65.02;99984.75;5003699;28;1495;-64
2021/03/22 04:51:47;;;;;;;;;;;;;;;15.39;64.42;99980.28;5001841;28;1382;-64
2021/03/22 04:54:12;;;;;;;;;;;;;;;15.33;60.46;99980.81;4999202;28;1397;-62
2021/03/22 04:56:38;;;;;;;;;;;;;;;15.41;64.65;99973.00;5000449;28;1303;-60
2021/03/22 04:59:04;;;;;;;;;;;;;;;15.40;64.88;99971.31;5003567;28;1388;-59
2021/03/22 05:01:29;;;;;;;;;;;;;;;15.40;64.16;99965.13;5005089;28;1515;-60
2021/03/22 05:03:54;;;;;;;;;;;;;;;15.47;65.15;99969.81;5010248;28;1474;-60
2021/03/22 05:06:20;;;;;;;;;;;;;;;15.47;64.77;99969.81;5003754;28;1910;-60
2021/03/22 05:08:46;;;;;;;;;;;;;;;15.52;64.71;99970.25;5004093;28;1344;-64
2021/03/22 05:11:11;;;;;;;;;;;;;;;15.65;64.50;99966.53;5001306;28;1496;-63
2021/03/22 05:13:36;;;;;;;;;;;;;;;15.99;64.70;99966.28;5016898;28;1526;-66
2021/03/22 05:16:02;;;;;;;;;;;;;;;16.84;61.81;99956.88;5005313;28;1353;-65
2021/03/22 05:18:30;;;;;;;;;;;;;;;17.54;60.74;99961.97;5002513;28;1407;-65
2021/03/22 05:20:57;;;;;;;;;;;;;;;18.19;58.27;99964.69;5006882;28;1446;-62
2021/03/22 05:23:24;;;;;;;;;;;;;;;18.56;57.62;99955.69;4999888;28;1350;-58
2021/03/22 05:25:50;;;;;;;;;;;;;;;18.87;56.59;99953.50;5011670;28;1246;-59
2021/03/22 05:28:16;;;;;;;;;;;;;;;18.88;56.63;99984.66;5006985;28;1906;-62
2021/03/22 05:30:42;;;;;;;;;;;;;;;18.92;56.88;99953.91;5005623;28;1332;-62
2021/03/22 05:33:09;;;;;;;;;;;;;;;18.97;57.52;99962.28;5000294;28;1418;-60
2021/03/22 05:35:35;;;;;;;;;;;;;;;18.81;57.41;99970.19;5008972;28;1290;-61
2021/03/22 05:38:01;;;;;;;;;;;;;;;18.59;58.04;99969.63;5016764;28;1232;-61
2021/03/22 05:40:30;;;;;;;;;;;;;;;18.59;58.01;99963.44;5005433;28;1576;-65
2021/03/22 05:43:01;;;;;;;;;;;;;;;18.79;57.46;99940.00;5017644;28;1432;-64
2021/03/22 05:45:47;;;;;;;;;;;;;;;18.81;57.40;99954.97;5007919;28;1384;-63
2021/03/22 05:48:31;;;;;;;;;;;;;;;19.01;56.99;99958.31;4998779;28;1957;-62
2021/03/22 05:51:15;;;;;;;;;;;;;;;19.20;56.76;99951.94;4999995;28;1484;-63
2021/03/22 05:54:13;;;;;;;;;;;;;;;18.83;59.18;99946.78;5000563;28;1387;-59
2021/03/22 05:56:53;;;;;;;;;;;;;;;18.27;59.44;99944.19;4987290;28;1301;-64
2021/03/22 05:59:23;;;;;;;;;;;;;;;17.82;60.44;99944.13;5002073;28;1466;-60
2021/03/22 06:01:50;;;;;;;;;;;;;;;17.59;61.52;99946.34;5005452;28;1502;-60
2021/03/22 06:04:18;;;;;;;;;;;;;;;17.60;61.50;99948.84;5004085;28;1532;-75
2021/03/22 06:06:45;;;;;;;;;;;;;;;17.43;61.65;99942.44;5000483;28;1902;-63
2021/03/22 06:09:18;;;;;;;;;;;;;;;17.38;62.28;99952.72;5002290;28;1328;-72
2021/03/22 06:11:49;;;;;;;;;;;;;;;17.38;62.90;99952.72;5021727;28;1426;-64
2021/03/22 06:14:29;;;;;;;;;;;;;;;17.37;62.51;99944.84;5002967;28;1513;-64
2021/03/22 06:17:01;;;;;;;;;;;;;;;17.37;62.89;99944.84;5011772;28;1430;-64
2021/03/22 06:19:27;;;;;;;;;;;;;;;17.33;62.77;99949.66;5008269;28;1383;-62
2021/03/22 06:21:53;;;;;;;;;;;;;;;17.21;62.73;99937.44;4999003;28;1612;-58
2021/03/22 06:24:18;;;;;;;;;;;;;;;17.33;63.37;99935.44;5005620;28;1524;-66
2021/03/22 06:26:48;;;;;;;;;;;;;;;17.34;63.17;99932.63;4999705;28;1906;-63
2021/03/22 06:29:20;;;;;;;;;;;;;;;17.23;62.07;99925.63;5000163;28;1652;-59
2021/03/22 06:31:46;;;;;;;;;;;;;;;17.19;62.75;99929.59;5005636;28;1308;-62
2021/03/22 06:34:13;;;;;;;;;;;;;;;17.19;64.78;99950.09;5007055;28;1399;-63
2021/03/22 06:36:52;;;;;;;;;;;;;;;17.18;64.63;99949.25;4775099;28;10000251;-63
2021/03/22 06:39:18;;;;;;;;;;;;;;;17.32;62.88;99931.94;4996759;28;1547;-64
2021/03/22 06:41:47;;;;;;;;;;;;;;;17.40;63.38;99936.56;5002834;28;1385;-64
2021/03/22 06:44:25;;;;;;;;;;;;;;;17.46;62.03;99934.13;5001770;28;1599;-64
2021/03/22 06:46:53;;;;;;;;;;;;;;;17.38;63.66;99928.66;4997617;28;2287;-64
2021/03/22 06:49:24;;;;;;;;;;;;;;;17.43;62.27;99925.59;5000650;28;1477;-63
2021/03/22 06:51:56;;;;;;;;;;;;;;;17.41;63.40;99922.22;4995036;28;1501;-59
2021/03/22 06:54:30;;;;;;;;;;;;;;;17.44;62.26;99936.09;5000919;28;1344;-59
2021/03/22 06:57:04;;;;;;;;;;;;;;;17.40;63.14;99926.69;5001792;28;1591;-64
2021/03/22 06:59:29;;;;;;;;;;;;;;;17.44;63.85;99922.75;4995357;28;1409;-59
2021/03/22 07:01:55;;;;;;;;;;;;;;;17.45;63.02;99920.94;4999220;28;1504;-59
2021/03/22 07:04:30;;;;;;;;;;;;;;;17.50;62.30;99935.53;5003932;28;1600;-64
2021/03/22 07:07:04;;;;;;;;;;;;;;;17.54;63.28;99935.25;4998590;28;1963;-60
2021/03/22 07:09:35;;;;;;;;;;;;;;;17.54;62.37;99919.19;5003163;28;1146;-60
2021/03/22 07:12:01;;;;;;;;;;;;;;;17.60;62.74;99923.97;5000273;28;1630;-64
2021/03/22 07:14:27;;;;;;;;;;;;;;;17.29;62.59;99876.94;5003904;28;1677;-64
2021/03/22 07:17:15;;;;;;;;;;;;;;;17.62;61.96;99932.69;4997466;28;1479;-65
2021/03/22 07:19:41;;;;;;;;;;;;;;;17.63;62.51;99926.34;4999882;28;1649;-59
2021/03/22 07:22:17;;;;;;;;;;;;;;;17.63;63.23;99923.69;4995346;28;1421;-64
2021/03/22 07:24:45;;;;;;;;;;;;;;;17.60;62.93;99921.28;5004908;28;1310;-60
2021/03/22 07:27:22;;;;;;;;;;;;;;;17.63;62.77;99931.69;5002979;28;1918;-60
2021/03/22 07:29:57;;;;;;;;;;;;;;;17.62;63.16;99938.03;5001174;28;1572;-60
2021/03/22 07:32:22;;;;;;;;;;;;;;;17.63;63.27;99937.88;5000432;28;1657;-64
2021/03/22 07:35:06;;;;;;;;;;;;;;;17.67;63.46;99943.78;5004442;28;1319;-65
2021/03/22 07:37:36;;;;;;;;;;;;;;;17.69;63.30;99933.78;4996427;28;2194;-60
2021/03/22 07:40:02;;;;;;;;;;;;;;;17.73;63.01;99932.50;5001527;28;1517;-65
2021/03/22 07:42:30;;;;;;;;;;;;;;;17.74;62.82;99936.00;5002299;28;1347;-60
2021/03/22 07:44:56;;;;;;;;;;;;;;;17.79;61.95;99933.75;4999381;28;1465;-65
2021/03/22 07:47:21;;;;;;;;;;;;;;;17.78;62.35;99927.53;5001419;28;1991;-60
2021/03/22 07:49:46;;;;;;;;;;;;;;;17.83;62.91;99938.66;4998534;28;1428;-65
2021/03/22 07:52:18;;;;;;;;;;;;;;;17.79;62.19;99931.91;4999674;28;1460;-64
2021/03/22 07:54:58;;;;;;;;;;;;;;;17.76;63.07;99932.19;4996322;28;1404;-65
2021/03/22 07:57:43;;;;;;;;;;;;;;;17.77;62.92;99922.34;5002521;28;1493;-60
2021/03/22 08:00:15;;;;;;;;;;;;;;;17.79;61.87;99921.22;4998892;28;1551;-59
2021/03/22 08:02:52;;;;;;;;;;;;;;;17.84;62.57;99932.31;4999172;28;1438;-65
2021/03/22 08:05:17;;;;;;;;;;;;;;;17.84;62.84;99944.84;4997696;28;1433;-64
2021/03/22 08:07:54;;;;;;;;;;;;;;;17.86;62.57;99927.66;4998559;28;1925;-59
2021/03/22 08:10:22;;;;;;;;;;;;;;;17.84;61.83;99921.63;4997944;28;1390;-60
2021/03/22 08:12:48;;;;;;;;;;;;;;;17.81;62.55;99913.03;5002865;28;1367;-59
2021/03/22 08:15:27;;;;;;;;;;;;;;;17.74;63.05;99918.13;5001211;28;1324;-66
2021/03/22 08:17:57;;;;;;;;;;;;;;;17.69;62.64;99907.03;5005583;28;1596;-67
2021/03/22 08:20:26;;;;;;;;;;;;;;;17.74;63.50;99914.63;5004470;28;1315;-66
2021/03/22 08:22:52;;;;;;;;;;;;;;;17.69;62.62;99902.53;5002483;28;1479;-58
2021/03/22 08:25:17;;;;;;;;;;;;;;;17.74;63.11;99915.44;4998661;28;1338;-67
2021/03/22 08:28:01;;;;;;;;;;;;;;;17.69;63.04;99910.56;5010261;28;1922;-56
2021/03/22 08:30:36;;;;;;;;;;;;;;;17.73;62.48;99921.81;5001172;28;1306;-61
2021/03/22 08:33:13;;;;;;;;;;;;;;;17.70;63.39;99917.56;4998703;28;1547;-64
2021/03/22 08:35:46;;;;;;;;;;;;;;;17.68;63.02;99932.09;5001534;28;1463;-64
2021/03/22 08:38:11;;;;;;;;;;;;;;;17.60;63.10;99913.25;5002954;28;1482;-64
2021/03/22 08:40:51;;;;;;;;;;;;;;;17.59;62.95;99923.13;5005258;28;1403;-63
2021/03/22 08:43:20;;;;;;;;;;;;;;;17.55;62.71;99915.53;5002979;28;1458;-63
2021/03/22 08:45:54;;;;;;;;;;;;;;;17.53;63.28;99913.03;5019898;28;1379;-60
2021/03/22 08:48:25;;;;;;;;;;;;;;;17.54;62.80;99916.53;5008694;28;1961;-60
2021/03/22 08:50:51;;;;;;;;;;;;;;;17.54;62.61;99921.88;5007018;28;1535;-60
2021/03/22 08:53:18;;;;;;;;;;;;;;;17.49;63.53;99915.13;5014429;28;1191;-64
2021/03/22 08:55:50;;;;;;;;;;;;;;;17.53;63.69;99925.53;5013811;28;954;-64
2021/03/22 08:58:19;;;;;;;;;;;;;;;17.55;63.44;99919.06;5009809;28;2715;-64
2021/03/22 09:00:45;;;;;;;;;;;;;;;17.53;63.44;99920.19;4660132;28;10000676;-60
2021/03/22 09:03:13;;;;;;;;;;;;;;;17.56;62.49;99914.56;5015948;28;1480;-63
2021/03/22 09:05:39;;;;;;;;;;;;;;;17.59;63.27;99923.13;5005272;28;1362;-63
2021/03/22 09:08:34;;;;;;;;;;;;;;;17.63;62.36;99907.63;5004986;28;1961;-63
2021/03/22 09:11:17;;;;;;;;;;;;;;;17.63;63.52;99904.97;4999858;28;1410;-64
2021/03/22 09:13:58;;;;;;;;;;;;;;;17.64;62.55;99906.63;5003260;28;1435;-59
2021/03/22 09:16:24;;;;;;;;;;;;;;;17.64;62.35;99918.16;5017058;28;1424;-63
2021/03/22 09:19:19;;;;;;;;;;;;;;;17.70;62.53;99901.53;5008085;28;1556;-64
2021/03/22 09:22:10;;;;;;;;;;;;;;;17.74;62.46;99904.75;5010920;28;1466;-59
2021/03/22 09:24:39;;;;;;;;;;;;;;;17.78;62.40;99910.66;5007851;28;1654;-65
2021/03/22 09:27:16;;;;;;;;;;;;;;;17.86;62.86;99919.63;5015456;28;1973;-60
2021/03/22 09:29:47;;;;;;;;;;;;;;;17.90;62.58;99925.53;5004908;28;1441;-60
2021/03/22 09:32:22;;;;;;;;;;;;;;;17.91;62.44;99927.22;5000819;28;1454;-64
2021/03/22 09:34:47;;;;;;;;;;;;;;;17.88;62.17;99919.50;5001460;28;1694;-64
2021/03/22 09:37:31;;;;;;;;;;;;;;;17.85;62.73;99926.00;4999364;28;1224;-60
2021/03/22 09:39:56;;;;;;;;;;;;;;;17.84;62.74;99912.75;5005038;28;1645;-64
2021/03/22 09:42:24;;;;;;;;;;;;;;;17.86;62.99;99924.97;5010951;28;1275;-60
2021/03/22 09:44:55;;;;;;;;;;;;;;;17.83;62.66;99933.31;5003492;28;1446;-64
2021/03/22 09:47:34;;;;;;;;;;;;;;;17.74;62.54;99919.97;5007584;28;1882;-63
2021/03/22 09:50:00;;;;;;;;;;;;;;;17.68;62.66;99902.66;5013342;28;1532;-60
2021/03/22 09:52:25;;;;;;;;;;;;;;;17.68;62.67;99902.66;5008075;28;1370;-64
2021/03/22 09:54:51;;;;;;;;;;;;;;;17.61;63.37;99912.28;5004728;28;1546;-64
2021/03/22 09:57:16;;;;;;;;;;;;;;;17.60;63.07;99910.59;4998575;28;924;-64
2021/03/22 10:00:00;;;;;;;;;;;;;;;17.58;63.06;99923.25;5013143;28;1383;-64
2021/03/22 10:02:39;;;;;;;;;;;;;;;17.57;63.69;99911.75;5016155;28;1720;-64
2021/03/22 10:05:08;;;;;;;;;;;;;;;17.61;63.95;99918.47;5006501;28;1533;-64
2021/03/22 10:07:35;;;;;;;;;;;;;;;17.64;63.01;99911.97;5006224;28;1898;-60
2021/03/22 10:10:05;;;;;;;;;;;;;;;17.63;62.96;99910.31;5000544;28;1557;-64
2021/03/22 10:12:40;;;;;;;;;;;;;;;17.69;63.60;99918.56;5012525;28;1422;-60
2021/03/22 10:15:11;;;;;;;;;;;;;;;17.67;63.47;99917.03;5001460;28;1263;-64
2021/03/22 10:17:42;;;;;;;;;;;;;;;17.63;63.56;99927.19;5006883;28;836;-64
2021/03/22 10:20:23;;;;;;;;;;;;;;;17.65;62.76;99913.69;5003065;28;1722;-60
2021/03/22 10:22:50;;;;;;;;;;;;;;;17.67;62.76;99933.09;5010168;28;1561;-61
2021/03/22 10:25:25;;;;;;;;;;;;;;;17.69;62.72;99925.75;5000192;28;1438;-64
2021/03/22 10:27:58;;;;;;;;;;;;;;;17.69;63.37;99931.09;5001186;28;1910;-64
2021/03/22 10:30:23;;;;;;;;;;;;;;;17.70;62.63;99916.72;5000171;28;1305;-60
2021/03/22 10:33:05;;;;;;;;;;;;;;;17.74;63.25;99936.00;5008439;28;1725;-68
2021/03/22 10:35:52;;;;;;;;;;;;;;;17.71;62.98;99907.75;5011078;28;1502;-64
2021/03/22 10:38:28;;;;;;;;;;;;;;;17.76;62.77;99924.16;5009327;28;1444;-60
2021/03/22 10:40:54;;;;;;;;;;;;;;;17.84;62.73;99913.59;5013092;28;813;-65
2021/03/22 10:43:30;;;;;;;;;;;;;;;17.84;63.48;99916.28;5010704;28;1267;-59
2021/03/22 10:46:12;;;;;;;;;;;;;;;17.85;63.45;99911.78;5017337;28;1483;-65
2021/03/22 10:48:37;;;;;;;;;;;;;;;17.84;62.51;99908.25;5006412;28;1890;-59
2021/03/22 10:51:05;;;;;;;;;;;;;;;17.85;62.97;99909.94;5008659;28;1422;-66
2021/03/22 10:53:30;;;;;;;;;;;;;;;17.80;63.30;99909.50;5010885;28;1467;-66
2021/03/22 10:55:56;;;;;;;;;;;;;;;17.80;62.64;99911.34;5013500;28;950;-69
2021/03/22 10:58:21;;;;;;;;;;;;;;;17.82;62.76;99893.31;5005426;28;1441;-66
2021/03/22 11:00:47;;;;;;;;;;;;;;;17.85;63.11;99901.91;5000935;28;1411;-72
2021/03/22 11:03:19;;;;;;;;;;;;;;;17.87;63.36;99907.13;5009230;28;1559;-64
2021/03/22 11:05:45;;;;;;;;;;;;;;;17.83;63.79;99901.22;5004446;28;1683;-64
2021/03/22 11:08:20;;;;;;;;;;;;;;;17.77;63.45;99901.78;5000979;28;1921;-66
2021/03/22 11:10:46;;;;;;;;;;;;;;;17.84;63.95;99916.28;5006836;28;1209;-58
2021/03/22 11:13:15;;;;;;;;;;;;;;;17.80;63.88;99900.66;5001757;28;1439;-59
2021/03/22 11:15:41;;;;;;;;;;;;;;;17.48;64.02;99859.16;5011009;28;1591;-59
2021/03/22 11:18:11;;;;;;;;;;;;;;;17.74;64.07;99894.06;5004390;28;1500;-65
2021/03/22 11:20:40;;;;;;;;;;;;;;;17.69;63.91;99899.03;5001941;28;1247;-65
2021/03/22 11:23:28;;;;;;;;;;;;;;;17.69;63.17;99891.84;5008530;28;1490;-64
2021/03/22 11:25:55;;;;;;;;;;;;;;;17.69;63.46;99896.34;5018740;28;1105;-64
2021/03/22 11:28:20;;;;;;;;;;;;;;;17.73;63.56;99902.25;5007816;28;1968;-65
2021/03/22 11:30:49;;;;;;;;;;;;;;;17.67;63.48;99887.63;5005423;28;1447;-64
2021/03/22 11:33:16;;;;;;;;;;;;;;;17.67;63.25;99906.34;4999502;28;1421;-59
2021/03/22 11:35:42;;;;;;;;;;;;;;;17.69;63.51;99910.56;5005973;28;1356;-59
2021/03/22 11:38:18;;;;;;;;;;;;;;;17.74;63.47;99906.59;5003805;28;1669;-65
2021/03/22 11:40:44;;;;;;;;;;;;;;;17.80;63.11;99938.91;5008742;28;1105;-59
2021/03/22 11:43:21;;;;;;;;;;;;;;;17.84;63.10;99912.75;4997728;28;1732;-60
2021/03/22 11:45:47;;;;;;;;;;;;;;;17.78;63.64;99908.81;5010163;28;1681;-58
2021/03/22 11:48:21;;;;;;;;;;;;;;;17.84;63.55;99916.28;4651017;28;10000330;-59
2021/03/22 11:50:59;;;;;;;;;;;;;;;17.84;62.50;99918.94;4998916;28;1468;-59
2021/03/22 11:53:25;;;;;;;;;;;;;;;17.84;63.29;99913.59;4998852;28;1447;-64
2021/03/22 11:56:17;;;;;;;;;;;;;;;17.78;63.93;99911.47;5012906;28;1504;-64
2021/03/22 11:58:43;;;;;;;;;;;;;;;17.76;63.68;99905.44;4995116;28;1446;-64
2021/03/22 12:01:11;;;;;;;;;;;;;;;17.73;63.96;99897.72;5002509;28;1292;-64
2021/03/22 12:03:37;;;;;;;;;;;;;;;17.85;62.72;99898.41;4999069;28;1444;-65
2021/03/22 12:06:10;;;;;;;;;;;;;;;17.90;62.87;99893.44;5013195;28;1450;-59
2021/03/22 12:08:35;;;;;;;;;;;;;;;17.91;62.83;99905.00;5002751;28;1906;-64
2021/03/22 12:11:02;;;;;;;;;;;;;;;17.91;63.10;99902.34;5004096;28;1247;-63
2021/03/22 12:13:28;;;;;;;;;;;;;;;17.92;63.47;99904.00;5002773;28;1480;-62
2021/03/22 12:15:53;;;;;;;;;;;;;;;17.95;62.56;99898.38;5001572;28;1588;-62
2021/03/22 12:18:39;;;;;;;;;;;;;;;17.96;63.19;99892.00;5003975;28;1443;-59
2021/03/22 12:21:09;;;;;;;;;;;;;;;17.89;63.06;99884.59;5001542;28;1820;-62
2021/03/22 12:23:35;;;;;;;;;;;;;;;17.70;62.55;99873.94;5006636;28;1471;-63
2021/03/22 12:26:00;;;;;;;;;;;;;;;17.77;62.95;99888.44;5006489;28;1367;-58
2021/03/22 12:28:26;;;;;;;;;;;;;;;17.81;63.00;99868.41;5012204;28;1903;-64
2021/03/22 12:30:51;;;;;;;;;;;;;;;17.83;63.50;99884.31;5004842;28;1391;-57
2021/03/22 12:33:21;;;;;;;;;;;;;;;17.76;63.15;99886.72;5013770;28;1368;-63
2021/03/22 12:35:47;;;;;;;;;;;;;;;17.75;64.37;99882.38;5012589;28;1557;-59
2021/03/22 12:38:12;;;;;;;;;;;;;;;17.69;63.48;99891.84;5011500;28;1415;-63
2021/03/22 12:40:38;;;;;;;;;;;;;;;17.70;64.09;99901.53;5009859;28;1328;-65
2021/03/22 12:43:03;;;;;;;;;;;;;;;17.75;63.33;99908.28;5009127;28;1234;-64
2021/03/22 12:45:34;;;;;;;;;;;;;;;17.73;63.22;99910.28;5034542;28;1741;-65
2021/03/22 12:48:00;;;;;;;;;;;;;;;17.69;63.91;99921.25;5008801;28;1946;-59
2021/03/22 12:50:27;;;;;;;;;;;;;;;17.74;63.54;99926.16;5009314;28;1395;-65
2021/03/22 12:52:53;;;;;;;;;;;;;;;17.73;63.51;99926.31;5006280;28;1302;-64
2021/03/22 12:55:20;;;;;;;;;;;;;;;17.74;63.20;99942.19;5002935;28;1697;-64
2021/03/22 12:57:46;;;;;;;;;;;;;;;17.70;63.25;99936.28;5009912;28;1524;-59
2021/03/22 13:00:12;;;;;;;;;;;;;;;17.69;63.29;99948.00;5008619;28;1456;-59
2021/03/22 13:02:39;;;;;;;;;;;;;;;17.70;63.84;99943.47;5007864;28;1345;-59
2021/03/22 13:05:28;;;;;;;;;;;;;;;17.69;64.13;99944.47;5018305;28;1240;-59
2021/03/22 13:07:54;;;;;;;;;;;;;;;17.70;63.03;99948.81;5004022;28;1967;-59